Tiempo atmosférico en la estación meteorológica de Ossa De Montiel, Albacete (905 m.)



Fecha
DESCASC
Temp. máxima en grados centígrados (hora)
DESCASC
Temp. mínima en grados centígrados (hora)
DESCASC
Temp. media en grados centígrados
DESCASC
Racha de viento máxima en m/sg (hora)
DESCASC
Velocidad máxima media en intervalos de 10 minutos(hora)
DESCASC
Precipitaciones diarias en mm
DESCASC
Precipitaciones de 00:00 a 06:00 en mm
DESCASC
Precipitaciones de 06:00 a 12:00 en mm
DESCASC
Precipitaciones de 12:00 a 18:00 en mm
DESCASC
Precipitaciones de 18:00 a 24:00 en mm
DESCASC
08-12-2019 14.3 (13:50) 0.5 (06:40) 7.4 7.22 (15:50) 3.89 (15:50) 0.2 0.2 0 0 0
07-12-2019 14.6 (15:10) 1.1 (08:10) 7.9 4.72 (16:40) 2.78 (16:40) 0 0 0 0 0
06-12-2019 12.8 (15:00) 5.5 (07:30) 9.2 8.33 (00:30) 4.17 (00:40) 0 0 0 0 0
05-12-2019 10.4 (15:20) 5 (00:00) 7.7 10.28 (13:10) 5.83 (13:20) 1.8 1.6 0.2 0 0
04-12-2019 6.1 (22:40) 4 (00:00) 5 6.39 (05:20) 3.61 (05:20) 4.2 1 0.2 1.6 1.4
03-12-2019 6.7 (12:40) 4 (00:00) 5.3 10.56 (13:10) 5.28 (02:20) 0 0 0 0 0
02-12-2019 7.7 (14:40) 4.8 (00:00) 6.3 12.78 (15:50) 6.67 (15:40) 5.2 4.4 0.6 0.2 0
01-12-2019 11.7 (13:10) 4.1 (00:00) 7.9 10.28 (03:10) 5.28 (00:30) 3 1.4 0 0 1.6
30-11-2019 17.4 (14:20) 8.6 (00:00) 13 9.44 (23:59) 5 (23:59) 0.2 0 0.2 0 0
29-11-2019 12.6 (14:20) 7.8 (00:00) 10.2 7.78 (05:10) 3.89 (04:50) 0 0 0 0 0
28-11-2019 9.1 (17:10) 6.2 (00:00) 7.7 8.89 (09:40) 4.44 (12:50) 0 0 0 0 0
27-11-2019 12.2 (11:10) 6.9 (00:00) 9.5 11.94 (11:20) 6.39 (10:50) 0 0 0 0 0
26-11-2019 14 (14:40) 8.6 (00:00) 11.3 12.5 (21:10) 6.11 (20:30) 0 0 0 0 0
25-11-2019 11.6 (17:10) 6.4 (00:00) 9 10.83 (05:50) 5.83 (06:00) 2.6 0 1 1.6 0
24-11-2019 9.8 (15:10) 1.1 (00:00) 5.5 7.78 (15:50) 4.17 (16:00) 0 0 0 0 0
23-11-2019 9 (13:50) 3.9 (00:00) 6.5 14.72 (03:20) 6.67 (06:40) 9.6 9.6 0 0 0
22-11-2019 10.8 (15:10) 6.5 (00:00) 8.7 13.89 (15:30) 7.22 (15:10) 17.6 0 0.4 11.6 5.6
21-11-2019 9.7 (13:40) 4.7 (00:00) 7.2 8.61 (15:00) 4.72 (15:00) 1.6 0.4 0 0.6 0.6
20-11-2019 10.5 (12:00) -1.1 (-00:0) 4.7 7.78 (15:10) 4.17 (16:10) 3.2 0 0 1.8 1.4
19-11-2019 10 (12:50) -2.7 (-00:0) 3.6 5.56 (13:40) 2.78 (13:00) 0 0 0 0 0
18-11-2019 8.1 (13:40) 0.8 (00:00) 4.5 9.44 (13:30) 5 (15:30) 0.8 0.8 0 0 0
17-11-2019 6.1 (23:40) -1.8 (-00:0) 2.1 11.11 (14:30) 6.11 (15:00) 16 0 0 0.2 15.8
16-11-2019 8.4 (14:50) -0.7 (-00:0) 3.8 7.5 (13:20) 3.61 (13:30) 0 0 0 0 0
15-11-2019 5.8 (13:50) 1.6 (00:00) 3.7 13.06 (00:50) 6.11 (00:20) 0 0 0 0 0
14-11-2019 10 (00:00) 0.6 (00:00) 5.3 14.44 (17:30) 7.22 (07:20) 9.2 0 4.8 4.4 0
13-11-2019 13.6 (13:40) 5.7 (00:00) 9.7 13.89 (06:30) 6.39 (08:00) 6 5 1 0 0
12-11-2019 11.3 (15:30) 1.5 (00:00) 6.4 7.5 (15:10) 3.89 (23:40) 0 0 0 0 0
11-11-2019 8.8 (16:10) 0.9 (03:40) 4.9 7.22 (12:10) 3.61 (12:10) 0 0 0 0 0

Gráficas

Temp. máximas Temp. mínimas Temp. medias Precipitaciones Rachas de viento máximas Velocidades máximas media en intervalos de 10 minutos

Datos horarios

Fecha y hora oficial Temperatura (ºC) Velocidad del viento (km/h) Dirección del viento Racha (km/h) Dirección de racha Precipitación (mm) Presión (hPa) Tendencia (hPa) Humedad (%)
2019-12-10 23:00:00 -- -- -- -- -- -- -- -- --
2019-12-10 22:00:00 -- -- -- -- -- -- -- -- --
2019-12-10 21:00:00 2.5 0 Calma 0 Calma 0 -- -- 91
2019-12-10 20:00:00 3.1 0 Calma 2 Nordeste 0 -- -- 87
2019-12-10 19:00:00 5.5 0 Calma 3 Oeste 0 -- -- 80
2019-12-10 18:00:00 7.6 0 Calma 7 Norte 0 -- -- 68
2019-12-10 17:00:00 9.9 2 Noroeste 10 Nordeste 0 -- -- 58
2019-12-10 16:00:00 12.5 6 Norte 14 Norte 0 -- -- 40
2019-12-10 15:00:00 13.6 5 Nordeste 12 Nordeste 0 -- -- 35
2019-12-10 14:00:00 13 6 Norte 17 Norte 0 -- -- 42
2019-12-10 13:00:00 12.3 4 Nordeste 12 Este 0 -- -- 45
2019-12-10 12:00:00 9.5 2 Este 6 Este 0 -- -- 91
2019-12-10 11:00:00 3.2 2 Sudeste 5 Sudeste 0 -- -- 99
2019-12-10 10:00:00 0.4 0 Calma 4 Sudeste 0 -- -- 99
2019-12-10 09:00:00 -0.1 0 Calma 4 Norte 0 -- -- 100
2019-12-10 08:00:00 0.4 0 Calma 7 Sudeste 0 -- -- 100
2019-12-10 07:00:00 1.3 0 Calma 6 Sur 0 -- -- 100
2019-12-10 06:00:00 1 2 Oeste 8 Noroeste 0 -- -- 100
2019-12-10 05:00:00 1.5 0 Calma 5 Sudeste 0.2 -- -- 99
2019-12-10 04:00:00 2.1 0 Calma 4 Sur 0 -- -- 99
2019-12-10 03:00:00 2.3 0 Calma 4 Norte 0 -- -- 99
2019-12-10 02:00:00 2.9 2 Oeste 5 Sudoeste 0 -- -- 98
2019-12-10 01:00:00 4.1 0 Calma 6 Nordeste 0 -- -- 98
2019-12-10 00:00:00 5.6 3 Nordeste 6 Norte 0 -- -- 97
2019-12-09 23:00:00 6.2 0 Calma 5 Noroeste 0 -- -- 97
2019-12-09 22:00:00 6.2 0 Calma 5 Este 0 -- -- 95
2019-12-09 21:00:00 6 0 Calma 5 Noroeste 0 -- -- 88
2019-12-09 20:00:00 5.9 0 Calma 6 Norte 0 -- -- 81
2019-12-09 19:00:00 6.9 0 Calma 4 Noroeste 0 -- -- 69
2019-12-09 18:00:00 8.9 2 Noroeste 10 Oeste 0 -- -- 61
2019-12-09 17:00:00 11.1 4 Norte 17 Norte 0 -- -- 48
2019-12-09 16:00:00 13 6 Noroeste 19 Norte 0 -- -- 46
2019-12-09 15:00:00 12.8 10 Noroeste 23 Noroeste 0 -- -- 49
2019-12-09 14:00:00 12.3 8 Noroeste 18 Noroeste 0 -- -- 61
2019-12-09 13:00:00 12.3 7 Noroeste 16 Noroeste 0 -- -- 63
2019-12-09 12:00:00 9.8 9 Oeste 17 Oeste 0 -- -- 77
2019-12-09 11:00:00 6.7 4 Noroeste 13 Noroeste 0 -- -- 91
2019-12-09 10:00:00 6.4 4 Oeste 10 Oeste 0 -- -- 96
2019-12-09 09:00:00 6 6 Noroeste 13 Noroeste 0 -- -- 98
2019-12-09 08:00:00 6.4 4 Noroeste 12 Oeste 0 -- -- 99
2019-12-09 07:00:00 6.6 0 Calma 9 Noroeste 0 -- -- 98
2019-12-09 06:00:00 6.8 4 Oeste 11 Oeste 0 -- -- 98
2019-12-09 05:00:00 7.2 4 Noroeste 10 Noroeste 0 -- -- 97
2019-12-09 04:00:00 7.4 3 Noroeste 13 Oeste 0 -- -- 97
2019-12-09 03:00:00 7.5 3 Noroeste 10 Oeste 0 -- -- 96
2019-12-09 02:00:00 7.5 4 Noroeste 8 Oeste 0 -- -- 96
2019-12-09 01:00:00 7.5 3 Oeste 9 Oeste 0 -- -- 96
2019-12-09 00:00:00 7.6 4 Oeste 12 Noroeste 0 -- -- 96
2019-12-08 23:00:00 7.5 4 Oeste 15 Oeste 0 -- -- 95
2019-12-08 22:00:00 7.6 5 Noroeste 13 Noroeste 0 -- -- 95
2019-12-08 21:00:00 7.5 4 Noroeste 9 Noroeste 0 -- -- 94
2019-12-08 20:00:00 7.9 5 Noroeste 19 Noroeste 0 -- -- 92
2019-12-08 19:00:00 8.4 6 Noroeste 23 Noroeste 0 -- -- 87
2019-12-08 18:00:00 8.9 6 Noroeste 17 Noroeste 0 -- -- 88
2019-12-08 17:00:00 10.8 6 Noroeste 22 Oeste 0 -- -- 77
2019-12-08 16:00:00 12.1 10 Oeste 26 Oeste 0 -- -- 69
2019-12-08 15:00:00 13.8 13 Oeste 23 Oeste 0 -- -- 59
2019-12-08 14:00:00 14.3 8 Oeste 18 Noroeste 0 -- -- 55
2019-12-08 13:00:00 13.7 8 Oeste 17 Oeste 0 -- -- 59
2019-12-08 12:00:00 12 4 Oeste 12 Oeste 0 -- -- 69
2019-12-08 11:00:00 8.1 4 Sudoeste 9 Sudoeste 0 -- -- 86
2019-12-08 10:00:00 6.1 0 Calma 2 Sudeste 0 -- -- 96
2019-12-08 09:00:00 0.7 0 Calma 3 Sur 0 -- -- 100
2019-12-08 08:00:00 0.5 0 Calma 2 Sudeste 0 -- -- 100
2019-12-08 07:00:00 0.5 0 Calma 2 Sur 0 -- -- 100
2019-12-08 06:00:00 0.7 0 Calma 3 Sudeste 0 -- -- 100
2019-12-08 05:00:00 0.8 0 Calma 2 Sudeste 0.2 -- -- 100
2019-12-08 04:00:00 1 0 Calma 3 Sudeste 0 -- -- 100
2019-12-08 03:00:00 1.5 0 Calma 2 Sudeste 0 -- -- 100
2019-12-08 02:00:00 2.2 2 Sudoeste 3 Sudoeste 0 -- -- 100
2019-12-08 01:00:00 3 0 Calma 4 Sur 0 -- -- 99
2019-12-08 00:00:00 3.7 2 Sur 5 Sudeste 0 -- -- 99
2019-12-07 23:00:00 4.5 0 Calma 5 Sur 0 -- -- 99
2019-12-07 22:00:00 5.4 2 Sur 4 Sur 0 -- -- 98
2019-12-07 21:00:00 6.1 0 Calma 5 Sur 0 -- -- 98
2019-12-07 20:00:00 6.4 2 Sudoeste 6 Sudoeste 0 -- -- 97
2019-12-07 19:00:00 6.7 0 Calma 9 Norte 0 -- -- 95
2019-12-07 18:00:00 7.7 5 Norte 15 Nordeste 0 -- -- 92
2019-12-07 17:00:00 10 9 Nordeste 17 Nordeste 0 -- -- 84
2019-12-07 16:00:00 13.4 2 Norte 6 Norte 0 -- -- 60
2019-12-07 15:00:00 14.2 0 Calma 8 Nordeste 0 -- -- 61
2019-12-07 14:00:00 12.9 4 Nordeste 10 Nordeste 0 -- -- 67
2019-12-07 13:00:00 12.1 4 Nordeste 8 Nordeste 0 -- -- 65
2019-12-07 12:00:00 12.3 3 Oeste 12 Sudeste 0 -- -- 69
2019-12-07 11:00:00 9.7 3 Sur 12 Sudeste 0 -- -- 78
2019-12-07 10:00:00 5.1 2 Sur 6 Sudeste 0 -- -- 97
2019-12-07 09:00:00 1.7 0 Calma 5 Nordeste 0 -- -- 98
2019-12-07 08:00:00 1.4 0 Calma 6 Sur 0 -- -- 97
2019-12-07 07:00:00 1.7 0 Calma 4 Sudoeste 0 -- -- 98
2019-12-07 06:00:00 1.6 0 Calma 3 Sur 0 -- -- 97
2019-12-07 05:00:00 1.9 0 Calma 2 Nordeste 0 -- -- 97
2019-12-07 04:00:00 2.2 0 Calma 0 Calma 0 -- -- 96
2019-12-07 03:00:00 3.1 0 Calma 0 Calma 0 -- -- 95
2019-12-07 02:00:00 4.1 0 Calma 5 Sur 0 -- -- 94
2019-12-07 01:00:00 5.1 0 Calma 15 Sudeste 0 -- -- 93
2019-12-07 00:00:00 6 5 Sudeste 17 Sudeste 0 -- -- 91
2019-12-06 23:00:00 6.5 5 Sur 24 Sudeste 0 -- -- 90
2019-12-06 22:00:00 6.7 8 Sudeste 24 Sudeste 0 -- -- 94
2019-12-06 21:00:00 6.5 4 Sur 12 Sur 0 -- -- 94
2019-12-06 20:00:00 6.9 4 Sudeste 12 Sudeste 0 -- -- 91
2019-12-06 19:00:00 7.4 4 Sudeste 13 Sudeste 0 -- -- 85
2019-12-06 18:00:00 8.9 11 Sudeste 23 Sudeste 0 -- -- 79
2019-12-06 17:00:00 10.8 9 Sudeste 22 Sudeste 0 -- -- 75
2019-12-06 16:00:00 12.2 10 Sur 25 Sudeste 0 -- -- 66
2019-12-06 15:00:00 12.8 10 Sudeste 27 Sudeste 0 -- -- 65
2019-12-06 14:00:00 12.4 12 Sudeste 28 Sudeste 0 -- -- 66
2019-12-06 13:00:00 11.8 10 Sudeste 26 Sudeste 0 -- -- 71
2019-12-06 12:00:00 11.1 12 Sudeste 28 Sudeste 0 -- -- 73
2019-12-06 11:00:00 9.9 13 Sudeste 30 Sudeste 0 -- -- 78
2019-12-06 10:00:00 8.1 12 Sudeste 26 Sudeste 0 -- -- 86
2019-12-06 09:00:00 5.7 11 Sudeste 25 Sudeste 0 -- -- 94
2019-12-06 08:00:00 5.6 8 Sudeste 23 Sudeste 0 -- -- 95
2019-12-06 07:00:00 5.8 10 Sudeste 24 Sudeste 0 -- -- 95
2019-12-06 06:00:00 6.1 12 Sudeste 28 Sudeste 0 -- -- 95
2019-12-06 05:00:00 5.8 6 Sudeste 24 Sudeste 0 -- -- 95
2019-12-06 04:00:00 6.5 10 Sudeste 23 Sudeste 0 -- -- 94
2019-12-06 03:00:00 6.2 9 Sudeste 20 Sudeste 0 -- -- 95
2019-12-06 02:00:00 5.8 7 Sudeste 22 Sudeste 0 -- -- 95
2019-12-06 01:00:00 6.2 7 Sudeste 30 Sudeste 0 -- -- 94
2019-12-06 00:00:00 6.3 10 Sudeste 30 Sudeste 0 -- -- 93
2019-12-05 23:00:00 6.3 9 Sudeste 28 Sudeste 0 -- -- 94
2019-12-05 22:00:00 6.7 6 Sudeste 20 Sudeste 0 -- -- 93
2019-12-05 21:00:00 6.8 8 Sudeste 20 Sudeste 0 -- -- 93
2019-12-05 20:00:00 7.1 6 Sudeste 19 Sudeste 0 -- -- 92
2019-12-05 19:00:00 6.7 5 Sudeste 13 Este 0 -- -- 91
2019-12-05 18:00:00 7.7 5 Sudeste 19 Este 0 -- -- 85
2019-12-05 17:00:00 8.9 11 Sudeste 26 Sudeste 0 -- -- 79
2019-12-05 16:00:00 9.9 11 Sudeste 30 Sudeste 0 -- -- 75
2019-12-05 15:00:00 9.6 12 Sudeste 32 Sudeste 0 -- -- 77
2019-12-05 14:00:00 8.4 13 Sudeste 37 Sudeste 0 -- -- 83
2019-12-05 13:00:00 8.1 19 Sudeste 36 Sudeste 0 -- -- 86
2019-12-05 12:00:00 7.8 14 Sudeste 31 Sudeste 0 -- -- 90
2019-12-05 11:00:00 6.4 14 Sudeste 27 Este 0 -- -- 97
2019-12-05 10:00:00 5.9 12 Este 30 Este 0 -- -- 98
2019-12-05 09:00:00 5.6 12 Este 22 Este 0 -- -- 99
2019-12-05 08:00:00 5.2 10 Este 18 Este 0.2 -- -- 99
2019-12-05 07:00:00 5.1 4 Nordeste 9 Nordeste 0 -- -- 99
2019-12-05 06:00:00 5.1 3 Este 8 Este 0.2 -- -- 99
2019-12-05 05:00:00 5.4 3 Nordeste 10 Nordeste 0.4 -- -- 99
2019-12-05 04:00:00 5.5 6 Este 12 Nordeste 0.8 -- -- 100
2019-12-05 03:00:00 5.6 2 Nordeste 4 Nordeste 0.2 -- -- 100
2019-12-05 02:00:00 5.7 2 Nordeste 3 Nordeste 0 -- -- 100
2019-12-05 01:00:00 5.8 2 Nordeste 2 Norte 0 -- -- 100
2019-12-05 00:00:00 5.9 0 Calma 5 Norte 0.2 -- -- 100
2019-12-04 23:00:00 6.1 2 Norte 5 Noroeste 0.8 -- -- 100
2019-12-04 22:00:00 6 2 Noroeste 7 Noroeste 0 -- -- 100
2019-12-04 21:00:00 5.9 0 Calma 8 Noroeste 0.2 -- -- 100
2019-12-04 20:00:00 5.9 3 Noroeste 9 Noroeste 0 -- -- 99
2019-12-04 19:00:00 5.8 4 Noroeste 8 Norte 0.2 -- -- 99
2019-12-04 18:00:00 5.7 3 Noroeste 11 Noroeste 0 -- -- 99
2019-12-04 17:00:00 5.6 4 Norte 13 Norte 0 -- -- 99
2019-12-04 16:00:00 5.7 6 Norte 15 Noroeste 0.4 -- -- 99
2019-12-04 15:00:00 5.6 4 Norte 18 Norte 0 -- -- 99
2019-12-04 14:00:00 5.8 4 Norte 18 Norte 1 -- -- 98
2019-12-04 13:00:00 5.6 5 Norte 18 Norte 0.2 -- -- 98
2019-12-04 12:00:00 5.3 6 Norte 18 Norte 0 -- -- 98
2019-12-04 11:00:00 5.1 6 Norte 20 Noroeste 0.2 -- -- 98
2019-12-04 10:00:00 5 6 Norte 17 Norte 0 -- -- 98
2019-12-04 09:00:00 4.7 6 Norte 14 Noroeste 0 -- -- 97
2019-12-04 08:00:00 4.6 5 Norte 16 Nordeste 0 -- -- 97
2019-12-04 07:00:00 4.7 9 Nordeste 19 Nordeste 0 -- -- 96
2019-12-04 06:00:00 4.7 11 Nordeste 23 Nordeste 0 -- -- 96
2019-12-04 05:00:00 4.5 5 Nordeste 13 Nordeste 0 -- -- 97
2019-12-04 04:00:00 4.1 7 Nordeste 12 Nordeste 1 -- -- 96
2019-12-04 03:00:00 4.1 6 Nordeste 14 Nordeste 0 -- -- 95
2019-12-04 02:00:00 4.2 4 Este 12 Nordeste 0 -- -- 92
2019-12-04 01:00:00 4 4 Este 15 Este 0 -- -- 92
2019-12-04 00:00:00 4.2 7 Este 18 Sudeste 0 -- -- 89
2019-12-03 23:00:00 4.1 9 Sudeste 24 Sudeste 0 -- -- 86
2019-12-03 22:00:00 4.1 10 Sudeste 28 Sudeste 0 -- -- 86
2019-12-03 21:00:00 4.2 10 Sudeste 33 Sudeste 0 -- -- 85
2019-12-03 20:00:00 4.7 13 Sudeste 32 Sudeste 0 -- -- 89
2019-12-03 19:00:00 4.9 12 Sudeste 37 Sudeste 0 -- -- 91
2019-12-03 18:00:00 5.3 11 Sudeste 30 Sudeste 0 -- -- 91
2019-12-03 17:00:00 5.5 15 Sudeste 32 Sudeste 0 -- -- 91
2019-12-03 16:00:00 5.9 10 Sudeste 32 Sudeste 0 -- -- 93
2019-12-03 15:00:00 6.6 14 Sudeste 32 Sudeste 0 -- -- 90
2019-12-03 14:00:00 6.2 16 Sudeste 38 Sudeste 0 -- -- 93
2019-12-03 13:00:00 6.5 17 Sudeste 36 Sudeste 0 -- -- 91
2019-12-03 12:00:00 6.3 14 Sudeste 36 Sudeste 0 -- -- 94
2019-12-03 11:00:00 6.1 14 Sudeste 32 Sudeste 0 -- -- 95
2019-12-03 10:00:00 5.8 12 Este 30 Este 0 -- -- 95
2019-12-03 09:00:00 6 8 Sudeste 26 Este 0 -- -- 93
2019-12-03 08:00:00 6.1 12 Sudeste 27 Sudeste 0 -- -- 91
2019-12-03 07:00:00 6 13 Sudeste 33 Sudeste 0 -- -- 93
2019-12-03 06:00:00 6 12 Sudeste 32 Sudeste 0 -- -- 93
2019-12-03 05:00:00 6.1 11 Sudeste 31 Sudeste 0 -- -- 93
2019-12-03 04:00:00 6 15 Sudeste 35 Sudeste 0 -- -- 94
2019-12-03 03:00:00 6 15 Sudeste 37 Sudeste 0 -- -- 93
2019-12-03 02:00:00 6 14 Sudeste 35 Sudeste 0 -- -- 90
2019-12-03 01:00:00 6 15 Este 35 Sudeste 0 -- -- 89
2019-12-03 00:00:00 5.7 18 Sudeste 39 Sudeste 0 -- -- 89
2019-12-02 23:00:00 5.7 18 Este 39 Este 0 -- -- 89
2019-12-02 22:00:00 6.1 15 Sudeste 37 Sudeste 0 -- -- 93
2019-12-02 21:00:00 5.9 15 Este 40 Este 0 -- -- 95
2019-12-02 20:00:00 5.9 17 Este 42 Este 0 -- -- 95
2019-12-02 19:00:00 6.3 15 Este 45 Sudeste 0 -- -- 94
2019-12-02 18:00:00 6.6 18 Sudeste 35 Este 0 -- -- 93
2019-12-02 17:00:00 7.4 16 Sudeste 45 Sudeste 0 -- -- 88
2019-12-02 16:00:00 7.3 20 Sudeste 46 Sudeste 0 -- -- 91
2019-12-02 15:00:00 7.5 20 Sudeste 44 Sudeste 0 -- -- 88
2019-12-02 14:00:00 7.2 18 Sudeste 37 Sudeste 0 -- -- 91
2019-12-02 13:00:00 7 14 Sudeste 35 Sudeste 0.2 -- -- 92
2019-12-02 12:00:00 5.9 15 Sudeste 32 Sudeste 0 -- -- 93
2019-12-02 11:00:00 5.9 11 Este 32 Este 0.4 -- -- 92
2019-12-02 10:00:00 6 12 Sudeste 27 Sudeste 0 -- -- 89
2019-12-02 09:00:00 5 13 Sudeste 36 Sudeste 0 -- -- 91
2019-12-02 08:00:00 4.8 15 Este 34 Sudeste 0 -- -- 91
2019-12-02 07:00:00 5 18 Sudeste 37 Sudeste 0.2 -- -- 91
2019-12-02 06:00:00 6.5 9 Sudeste 21 Sudeste 0.2 -- -- 95
2019-12-02 05:00:00 5.9 4 Este 19 Este 0 -- -- 95
2019-12-02 04:00:00 5.9 4 Este 8 Este 2.2 -- -- 93
2019-12-02 03:00:00 6 6 Sur 18 Sudeste 2 -- -- 91
2019-12-02 02:00:00 6.6 8 Sudeste 15 Sur 0 -- -- 86
2019-12-02 01:00:00 6.1 2 Sudeste 5 Sudeste 0 -- -- 95
2019-12-02 00:00:00 6.1 2 Sudeste 13 Sudeste 0 -- -- 94
2019-12-01 23:00:00 6.1 5 Sur 13 Sur 0 -- -- 95
2019-12-01 22:00:00 6 2 Sudeste 7 Sur 0.4 -- -- 94
2019-12-01 21:00:00 6.2 5 Sudoeste 17 Oeste 1.2 -- -- 93
2019-12-01 20:00:00 7.1 3 Oeste 8 Oeste 0 -- -- 88
2019-12-01 19:00:00 7.1 2 Sur 6 Sur 0 -- -- 85
2019-12-01 18:00:00 7.8 3 Sudoeste 17 Oeste 0 -- -- 82
2019-12-01 17:00:00 9.2 9 Oeste 24 Sudoeste 0 -- -- 74
2019-12-01 16:00:00 10.4 11 Sudoeste 25 Noroeste 0 -- -- 68
2019-12-01 15:00:00 10.1 15 Oeste 24 Oeste 0 -- -- 68
2019-12-01 14:00:00 10.5 14 Oeste 25 Oeste 0 -- -- 62
2019-12-01 13:00:00 11.6 10 Oeste 27 Oeste 0 -- -- 56
2019-12-01 12:00:00 10.7 13 Oeste 24 Oeste 0 -- -- 66
2019-12-01 11:00:00 8.4 9 Sudoeste 17 Sudoeste 0 -- -- 82
2019-12-01 10:00:00 6.1 6 Oeste 15 Oeste 0 -- -- 92
2019-12-01 09:00:00 4.6 6 Oeste 13 Oeste 0 -- -- 97
2019-12-01 08:00:00 4.5 10 Oeste 15 Oeste 0 -- -- 96
2019-12-01 07:00:00 5.5 5 Oeste 17 Oeste 0 -- -- 95
2019-12-01 06:00:00 6.7 9 Noroeste 31 Noroeste 0 -- -- 93
2019-12-01 05:00:00 7.1 10 Noroeste 25 Oeste 0 -- -- 95
2019-12-01 04:00:00 7.3 12 Noroeste 37 Noroeste 0.2 -- -- 96
2019-12-01 03:00:00 8.8 15 Noroeste 36 Noroeste 1 -- -- 95
2019-12-01 02:00:00 9.3 17 Oeste 31 Oeste 0 -- -- 95
2019-12-01 01:00:00 9.5 17 Oeste 31 Oeste 0.2 -- -- 95
2019-12-01 00:00:00 9.8 18 Oeste 34 Oeste 0 -- -- 93
2019-11-30 23:00:00 9.7 15 Oeste 24 Sudoeste 0 -- -- 93
2019-11-30 22:00:00 9.8 9 Sudoeste 21 Sudoeste 0 -- -- 91
2019-11-30 21:00:00 10 4 Oeste 15 Oeste 0 -- -- 88
2019-11-30 20:00:00 10.5 9 Oeste 17 Oeste 0 -- -- 85
2019-11-30 19:00:00 10.2 6 Noroeste 21 Noroeste 0 -- -- 87
2019-11-30 18:00:00 11.3 10 Noroeste 19 Noroeste 0 -- -- 89
2019-11-30 17:00:00 13.3 8 Noroeste 22 Noroeste 0 -- -- 79
2019-11-30 16:00:00 16.2 13 Oeste 25 Oeste 0 -- -- 63
2019-11-30 15:00:00 17.2 13 Oeste 23 Oeste 0 -- -- 57
2019-11-30 14:00:00 17.3 12 Oeste 23 Oeste 0 -- -- 57
2019-11-30 13:00:00 16.7 10 Oeste 19 Oeste 0 -- -- 61
2019-11-30 12:00:00 15.7 7 Oeste 15 Oeste 0.2 -- -- 64
2019-11-30 11:00:00 13.9 7 Sudoeste 13 Oeste 0 -- -- 71
2019-11-30 10:00:00 12 7 Sudoeste 13 Sudoeste 0 -- -- 78
2019-11-30 09:00:00 8.6 2 Sudoeste 8 Sudoeste 0 -- -- 93
2019-11-30 08:00:00 8.9 3 Sudoeste 8 Sudoeste 0 -- -- 93
2019-11-30 07:00:00 9.3 2 Sudoeste 7 Noroeste 0 -- -- 92
2019-11-30 06:00:00 9.3 2 Oeste 7 Oeste 0 -- -- 92
2019-11-30 05:00:00 9.3 3 Sudoeste 11 Oeste 0 -- -- 92
2019-11-30 04:00:00 9.5 6 Oeste 12 Oeste 0 -- -- 92
2019-11-30 03:00:00 9.3 3 Oeste 6 Sudoeste 0 -- -- 91
2019-11-30 02:00:00 9.3 2 Oeste 11 Norte 0 -- -- 91
2019-11-30 01:00:00 9.3 3 Noroeste 14 Noroeste 0 -- -- 92
2019-11-30 00:00:00 9.4 8 Oeste 15 Oeste 0 -- -- 93
2019-11-29 23:00:00 9.6 7 Oeste 17 Oeste 0 -- -- 93
2019-11-29 22:00:00 9.8 6 Oeste 17 Oeste 0 -- -- 92
2019-11-29 21:00:00 9.9 9 Oeste 17 Oeste 0 -- -- 91
2019-11-29 20:00:00 10.3 9 Noroeste 19 Noroeste 0 -- -- 90
2019-11-29 19:00:00 10.6 4 Noroeste 14 Oeste 0 -- -- 90
2019-11-29 18:00:00 10.9 7 Noroeste 19 Noroeste 0 -- -- 89
2019-11-29 17:00:00 11.3 8 Noroeste 21 Noroeste 0 -- -- 88
2019-11-29 16:00:00 12 6 Noroeste 21 Noroeste 0 -- -- 86
2019-11-29 15:00:00 12.3 8 Oeste 19 Noroeste 0 -- -- 84
2019-11-29 14:00:00 12.3 9 Noroeste 24 Noroeste 0 -- -- 83
2019-11-29 13:00:00 11.7 10 Oeste 22 Oeste 0 -- -- 87
2019-11-29 12:00:00 11 8 Noroeste 21 Oeste 0 -- -- 88
2019-11-29 11:00:00 10.4 12 Oeste 20 Oeste 0 -- -- 90
2019-11-29 10:00:00 9.4 8 Oeste 20 Oeste 0 -- -- 92
2019-11-29 09:00:00 9.1 9 Oeste 18 Oeste 0 -- -- 90
2019-11-29 08:00:00 8.7 9 Oeste 16 Oeste 0 -- -- 90
2019-11-29 07:00:00 8.4 9 Oeste 21 Oeste 0 -- -- 88
2019-11-29 06:00:00 8.4 13 Oeste 28 Oeste 0 -- -- 89
2019-11-29 05:00:00 8.3 13 Oeste 26 Oeste 0 -- -- 91
2019-11-29 04:00:00 8 8 Oeste 21 Oeste 0 -- -- 91
2019-11-29 03:00:00 8 12 Oeste 19 Oeste 0 -- -- 90
2019-11-29 02:00:00 8.3 9 Oeste 24 Oeste 0 -- -- 87
2019-11-29 01:00:00 8.1 10 Oeste 20 Oeste 0 -- -- 89
2019-11-29 00:00:00 8.1 14 Oeste 23 Oeste 0 -- -- 90
2019-11-28 23:00:00 8.1 13 Oeste 23 Oeste 0 -- -- 91
2019-11-28 22:00:00 8.1 10 Oeste 26 Oeste 0 -- -- 91
2019-11-28 21:00:00 8.1 13 Oeste 24 Oeste 0 -- -- 93
2019-11-28 20:00:00 7.9 10 Oeste 18 Oeste 0 -- -- 94
2019-11-28 19:00:00 8.4 9 Oeste 19 Oeste 0 -- -- 92
2019-11-28 18:00:00 8.6 12 Oeste 23 Oeste 0 -- -- 90
2019-11-28 17:00:00 9 10 Oeste 24 Oeste 0 -- -- 87
2019-11-28 16:00:00 8.7 8 Oeste 25 Oeste 0 -- -- 87
2019-11-28 15:00:00 8.4 12 Oeste 24 Oeste 0 -- -- 87
2019-11-28 14:00:00 8.4 12 Noroeste 27 Oeste 0 -- -- 87
2019-11-28 13:00:00 8.2 15 Oeste 27 Oeste 0 -- -- 88
2019-11-28 12:00:00 8 13 Oeste 27 Oeste 0 -- -- 88
2019-11-28 11:00:00 7.4 12 Oeste 31 Oeste 0 -- -- 93
2019-11-28 10:00:00 7.3 12 Oeste 32 Oeste 0 -- -- 93
2019-11-28 09:00:00 6.8 12 Oeste 23 Noroeste 0 -- -- 95
2019-11-28 08:00:00 6.3 9 Oeste 24 Oeste 0 -- -- 94
2019-11-28 07:00:00 6.6 10 Oeste 25 Oeste 0 -- -- 94
2019-11-28 06:00:00 6.8 13 Oeste 26 Oeste 0 -- -- 92
2019-11-28 05:00:00 6.7 14 Oeste 26 Oeste 0 -- -- 91
2019-11-28 04:00:00 6.7 12 Oeste 20 Oeste 0 -- -- 91
2019-11-28 03:00:00 6.9 8 Oeste 18 Oeste 0 -- -- 91
2019-11-28 02:00:00 6.3 8 Oeste 20 Noroeste 0 -- -- 92
2019-11-28 01:00:00 6.6 10 Oeste 23 Oeste 0 -- -- 92
2019-11-28 00:00:00 7 10 Oeste 19 Oeste 0 -- -- 92
2019-11-27 23:00:00 7.3 12 Oeste 21 Oeste 0 -- -- 89
2019-11-27 22:00:00 7.6 10 Oeste 23 Noroeste 0 -- -- 89
2019-11-27 21:00:00 8.1 14 Oeste 22 Noroeste 0 -- -- 89
2019-11-27 20:00:00 8.5 12 Oeste 23 Noroeste 0 -- -- 89
2019-11-27 19:00:00 9.5 10 Noroeste 25 Noroeste 0 -- -- 87
2019-11-27 18:00:00 10 13 Oeste 23 Oeste 0 -- -- 83
2019-11-27 17:00:00 10.5 10 Oeste 28 Oeste 0 -- -- 77
2019-11-27 16:00:00 10.8 10 Noroeste 31 Oeste 0 -- -- 74
2019-11-27 15:00:00 11 17 Noroeste 34 Noroeste 0 -- -- 71
2019-11-27 14:00:00 10.8 16 Noroeste 36 Noroeste 0 -- -- 72
2019-11-27 06:00:00 -- -- -- -- -- -- -- -- --
2019-11-27 05:00:00 10 14 Noroeste 42 Oeste 0 -- -- 94
2019-11-27 04:00:00 10.4 17 Noroeste 34 Oeste 0 -- -- 95
2019-11-27 03:00:00 10.9 16 Noroeste 41 Oeste 0 -- -- 95
2019-11-27 02:00:00 10.8 15 Oeste 35 Oeste 0 -- -- 97
2019-11-27 01:00:00 10.8 21 Oeste 37 Oeste 0 -- -- 97
2019-11-27 00:00:00 10.4 19 Oeste 36 Oeste 0 -- -- 97
2019-11-26 23:00:00 10.6 17 Oeste 34 Oeste 0 -- -- 96
2019-11-26 22:00:00 10.9 21 Oeste 45 Oeste 0 -- -- 94
2019-11-26 21:00:00 11.2 22 Oeste 43 Oeste 0 -- -- 92
2019-11-26 20:00:00 11.3 15 Oeste 33 Oeste 0 -- -- 92
2019-11-26 19:00:00 11.2 14 Oeste 30 Oeste 0 -- -- 93
2019-11-26 18:00:00 11.7 13 Oeste 31 Oeste 0 -- -- 92
2019-11-26 17:00:00 12.1 15 Oeste 32 Oeste 0 -- -- 90
2019-11-26 16:00:00 12.9 14 Oeste 27 Oeste 0 -- -- 88
2019-11-26 15:00:00 13.2 17 Oeste 35 Oeste 0 -- -- 87
2019-11-26 14:00:00 12.8 17 Oeste 31 Oeste 0 -- -- 90
2019-11-26 13:00:00 11.3 13 Oeste 27 Oeste 0 -- -- 93
2019-11-26 12:00:00 11.2 13 Oeste 31 Oeste 0 -- -- 90
2019-11-26 11:00:00 11.1 15 Oeste 27 Oeste 0 -- -- 92
2019-11-26 10:00:00 9.4 9 Oeste 16 Oeste 0 -- -- 97
2019-11-26 09:00:00 8.8 10 Oeste 22 Oeste 0 -- -- 96
2019-11-26 08:00:00 8.6 4 Oeste 13 Oeste 0 -- -- 94
2019-11-26 07:00:00 9.3 6 Oeste 15 Oeste 0 -- -- 90
2019-11-26 06:00:00 9.4 8 Oeste 18 Oeste 0 -- -- 88
2019-11-26 05:00:00 9.3 6 Noroeste 17 Oeste 0 -- -- 90
2019-11-26 04:00:00 9.6 9 Oeste 24 Oeste 0 -- -- 92
2019-11-26 03:00:00 9.7 10 Oeste 20 Oeste 0 -- -- 95
2019-11-26 02:00:00 9.8 9 Oeste 23 Oeste 0 -- -- 96
2019-11-26 01:00:00 9.8 11 Oeste 23 Sudoeste 0 -- -- 96
2019-11-26 00:00:00 9.8 10 Oeste 21 Oeste 0 -- -- 96
2019-11-25 23:00:00 9.7 11 Oeste 19 Oeste 0 -- -- 96
2019-11-25 22:00:00 9.9 11 Oeste 22 Oeste 0 -- -- 95
2019-11-25 21:00:00 10 7 Oeste 22 Noroeste 0 -- -- 95
2019-11-25 20:00:00 10.6 10 Oeste 22 Noroeste 0 -- -- 94
2019-11-25 19:00:00 10.9 8 Noroeste 22 Noroeste 0 -- -- 95
2019-11-25 18:00:00 11.4 9 Noroeste 28 Noroeste 0 -- -- 96
2019-11-25 17:00:00 11.5 12 Noroeste 28 Noroeste 0.4 -- -- 97
2019-11-25 16:00:00 11.3 9 Oeste 23 Oeste 0.2 -- -- 98
2019-11-25 15:00:00 10.5 15 Oeste 29 Noroeste 0.2 -- -- 98
2019-11-25 14:00:00 9.6 7 Oeste 24 Oeste 0.8 -- -- 98
2019-11-25 13:00:00 9.4 12 Oeste 27 Oeste 0 -- -- 98
2019-11-25 12:00:00 9 13 Oeste 25 Oeste 0 -- -- 98
2019-11-25 11:00:00 8.4 13 Oeste 32 Oeste 0 -- -- 98
2019-11-25 10:00:00 7.9 18 Oeste 31 Oeste 0 -- -- 98
2019-11-25 09:00:00 7.4 18 Oeste 31 Oeste 0 -- -- 98
2019-11-25 08:00:00 7.2 16 Oeste 26 Oeste 0.8 -- -- 98
2019-11-25 07:00:00 7 17 Oeste 32 Oeste 0.2 -- -- 97
2019-11-25 06:00:00 6.9 21 Oeste 39 Oeste 0 -- -- 97
2019-11-25 05:00:00 6.9 17 Oeste 33 Oeste 0 -- -- 96
2019-11-25 04:00:00 7.1 17 Oeste 32 Oeste 0 -- -- 94
2019-11-25 03:00:00 7 13 Oeste 32 Oeste 0 -- -- 93
2019-11-25 02:00:00 6.8 14 Oeste 30 Oeste 0 -- -- 92
2019-11-25 01:00:00 6.7 13 Oeste 24 Oeste 0 -- -- 91
2019-11-25 00:00:00 6.4 12 Oeste 24 Oeste 0 -- -- 91
2019-11-24 23:00:00 6.5 14 Oeste 27 Oeste 0 -- -- 89
2019-11-24 22:00:00 5.8 12 Oeste 20 Oeste 0 -- -- 89
2019-11-24 21:00:00 5.1 9 Oeste 23 Oeste 0 -- -- 89
2019-11-24 20:00:00 5.6 10 Oeste 19 Oeste 0 -- -- 85
2019-11-24 19:00:00 5.5 6 Oeste 15 Noroeste 0 -- -- 85
2019-11-24 18:00:00 6.7 9 Noroeste 23 Oeste 0 -- -- 76
2019-11-24 17:00:00 8 11 Oeste 27 Oeste 0 -- -- 70
2019-11-24 16:00:00 9.1 15 Oeste 28 Oeste 0 -- -- 65
2019-11-24 15:00:00 9.2 14 Oeste 23 Oeste 0 -- -- 67
2019-11-24 14:00:00 8.3 10 Oeste 19 Oeste 0 -- -- 72
2019-11-24 13:00:00 9 13 Oeste 21 Oeste 0 -- -- 71
2019-11-24 12:00:00 9 7 Oeste 15 Oeste 0 -- -- 75
2019-11-24 11:00:00 5.8 6 Oeste 16 Noroeste 0 -- -- 95
2019-11-24 10:00:00 3.2 6 Noroeste 13 Oeste 0 -- -- 98
2019-11-24 09:00:00 2.3 3 Noroeste 14 Oeste 0 -- -- 98
2019-11-24 08:00:00 1.6 3 Oeste 6 Noroeste 0 -- -- 98
2019-11-24 07:00:00 1.1 3 Sudoeste 9 Sudoeste 0 -- -- 97
2019-11-24 06:00:00 1.6 0 Calma 7 Oeste 0 -- -- 96
2019-11-24 05:00:00 2.1 0 Calma 9 Noroeste 0 -- -- 95
2019-11-24 04:00:00 2.5 3 Noroeste 12 Oeste 0 -- -- 94
2019-11-24 03:00:00 3.1 8 Noroeste 18 Noroeste 0 -- -- 93
2019-11-24 02:00:00 3.3 11 Noroeste 21 Noroeste 0 -- -- 91
2019-11-24 01:00:00 3.8 9 Noroeste 22 Noroeste 0 -- -- 88
2019-11-24 00:00:00 3.9 6 Noroeste 22 Noroeste 0 -- -- 87
2019-11-23 23:00:00 4.5 10 Noroeste 27 Noroeste 0 -- -- 84
2019-11-23 22:00:00 4.7 10 Noroeste 21 Noroeste 0 -- -- 83
2019-11-23 21:00:00 5.2 9 Noroeste 28 Noroeste 0 -- -- 80
2019-11-23 20:00:00 6.1 13 Noroeste 31 Noroeste 0 -- -- 77
2019-11-23 19:00:00 6.5 13 Noroeste 29 Noroeste 0 -- -- 77
2019-11-23 18:00:00 7.1 13 Noroeste 34 Noroeste 0 -- -- 74
2019-11-23 17:00:00 8 19 Noroeste 41 Noroeste 0 -- -- 71
2019-11-23 16:00:00 8.9 17 Noroeste 39 Noroeste 0 -- -- 66
2019-11-23 15:00:00 8.4 18 Noroeste 44 Noroeste 0 -- -- 70
2019-11-23 14:00:00 8.6 17 Noroeste 43 Noroeste 0 -- -- 72
2019-11-23 13:00:00 8.3 19 Noroeste 45 Noroeste 0 -- -- 74
2019-11-23 12:00:00 7.9 18 Noroeste 44 Noroeste 0 -- -- 75
2019-11-23 11:00:00 6.6 19 Noroeste 47 Noroeste 0 -- -- 81
2019-11-23 10:00:00 5.7 19 Noroeste 42 Noroeste 0 -- -- 86
2019-11-23 09:00:00 5.2 22 Noroeste 43 Noroeste 0 -- -- 90
2019-11-23 08:00:00 5.1 22 Noroeste 42 Noroeste 0 -- -- 90
2019-11-23 07:00:00 5.5 22 Noroeste 52 Noroeste 0 -- -- 91
2019-11-23 06:00:00 5.9 20 Noroeste 45 Noroeste 0 -- -- 92
2019-11-23 05:00:00 6.2 19 Noroeste 45 Noroeste 0 -- -- 93
2019-11-23 04:00:00 5.6 20 Noroeste 53 Noroeste 4.4 -- -- 94
2019-11-23 03:00:00 6.5 19 Oeste 42 Oeste 3.6 -- -- 94
2019-11-23 02:00:00 7.2 17 Oeste 37 Oeste 0 -- -- 91
2019-11-23 01:00:00 7.4 20 Noroeste 43 Noroeste 1.6 -- -- 94
2019-11-23 00:00:00 8 16 Noroeste 36 Noroeste 4.6 -- -- 95
2019-11-22 23:00:00 8.4 19 Oeste 40 Noroeste 0.2 -- -- 92
2019-11-22 22:00:00 8.9 19 Oeste 36 Noroeste 0 -- -- 86
2019-11-22 21:00:00 9.2 18 Noroeste 39 Oeste 0 -- -- 89
2019-11-22 20:00:00 9.9 17 Oeste 38 Oeste 0.2 -- -- 91
2019-11-22 19:00:00 10.3 19 Oeste 41 Oeste 0.6 -- -- 96
2019-11-22 18:00:00 10.1 15 Oeste 36 Sudoeste 1.2 -- -- 97
2019-11-22 17:00:00 10 18 Oeste 40 Oeste 5.2 -- -- 97
2019-11-22 16:00:00 10.3 26 Oeste 50 Sudoeste 1.8 -- -- 95
2019-11-22 15:00:00 10.6 25 Oeste 43 Oeste 1.6 -- -- 96
2019-11-22 14:00:00 9.9 14 Sudoeste 32 Oeste 1.6 -- -- 96
2019-11-22 13:00:00 10.1 16 Oeste 39 Oeste 0.2 -- -- 94
2019-11-22 12:00:00 10.7 18 Sudoeste 38 Oeste 0 -- -- 90
2019-11-22 11:00:00 9.7 12 Oeste 30 Sudoeste 0 -- -- 94
2019-11-22 10:00:00 8.7 11 Sudoeste 26 Sudoeste 0 -- -- 96
2019-11-22 09:00:00 7.9 9 Sudoeste 18 Sudoeste 0 -- -- 98
2019-11-22 08:00:00 7.6 11 Oeste 25 Oeste 0 -- -- 99
2019-11-22 07:00:00 7.6 8 Oeste 20 Oeste 0.4 -- -- 99
2019-11-22 06:00:00 7.2 8 Oeste 17 Oeste 0 -- -- 99
2019-11-22 05:00:00 7.1 6 Sudoeste 11 Oeste 0 -- -- 99
2019-11-22 04:00:00 7.1 5 Oeste 13 Sudoeste 0 -- -- 99
2019-11-22 03:00:00 6.9 6 Oeste 12 Oeste 0 -- -- 99
2019-11-22 02:00:00 6.8 5 Oeste 12 Oeste 0 -- -- 98
2019-11-22 01:00:00 6.6 0 Calma 5 Oeste 0 -- -- 98
2019-11-22 00:00:00 6.5 4 Oeste 8 Sudoeste 0 -- -- 98
2019-11-21 23:00:00 6.7 4 Oeste 10 Oeste 0 -- -- 98
2019-11-21 22:00:00 7.2 4 Sudoeste 9 Oeste 0.2 -- -- 98
2019-11-21 21:00:00 7.3 4 Sudoeste 10 Sudoeste 0 -- -- 97
2019-11-21 20:00:00 7.4 5 Oeste 13 Oeste 0.2 -- -- 96
2019-11-21 19:00:00 7.5 7 Oeste 14 Sudoeste 0.2 -- -- 95
2019-11-21 18:00:00 7.9 5 Oeste 19 Oeste 0.6 -- -- 93
2019-11-21 17:00:00 8.4 9 Oeste 25 Oeste 0 -- -- 90
2019-11-21 16:00:00 9 13 Oeste 30 Oeste 0 -- -- 86
2019-11-21 15:00:00 8.9 17 Oeste 31 Oeste 0 -- -- 86
2019-11-21 14:00:00 9.3 12 Oeste 27 Oeste 0 -- -- 85
2019-11-21 13:00:00 8.8 14 Oeste 25 Oeste 0 -- -- 90
2019-11-21 12:00:00 8.1 10 Oeste 20 Sudoeste 0 -- -- 91
2019-11-21 11:00:00 7.5 10 Oeste 18 Oeste 0 -- -- 94
2019-11-21 10:00:00 6.5 7 Oeste 17 Oeste 0 -- -- 96
2019-11-21 09:00:00 5.9 8 Oeste 16 Noroeste 0 -- -- 97
2019-11-21 08:00:00 -- -- -- -- -- -- -- -- --
2019-11-21 07:00:00 -- -- -- -- -- -- -- -- --
2019-11-21 06:00:00 -- -- -- -- -- -- -- -- --
2019-11-21 05:00:00 -- -- -- -- -- -- -- -- --
2019-11-21 04:00:00 -- -- -- -- -- -- -- -- --
2019-11-21 03:00:00 -- -- -- -- -- -- -- -- --
2019-11-21 02:00:00 -- -- -- -- -- -- -- -- --
2019-11-21 01:00:00 -- -- -- -- -- -- -- -- --
2019-11-21 00:00:00 -- -- -- -- -- -- -- -- --
2019-11-20 23:00:00 -- -- -- -- -- -- -- -- --
2019-11-20 22:00:00 -- -- -- -- -- -- -- -- --
2019-11-20 21:00:00 -- -- -- -- -- -- -- -- --
2019-11-20 20:00:00 -- -- -- -- -- -- -- -- --
2019-11-20 19:00:00 3.9 4 Sudoeste 17 Sudoeste 0.8 -- -- 94
2019-11-20 18:00:00 4.1 9 Oeste 23 Oeste 1 -- -- 91
2019-11-20 17:00:00 4.7 15 Oeste 27 Oeste 0.8 -- -- 86
2019-11-20 16:00:00 6.8 10 Sudoeste 28 Sudoeste 0 -- -- 76
2019-11-20 15:00:00 8.6 12 Oeste 25 Oeste 0 -- -- 67
2019-11-20 14:00:00 9.7 13 Oeste 24 Oeste 0 -- -- 59
2019-11-20 13:00:00 9.4 11 Oeste 24 Oeste 0 -- -- 52
2019-11-20 12:00:00 10.5 9 Oeste 19 Oeste 0 -- -- 53
2019-11-20 11:00:00 8.3 5 Sudoeste 14 Sudoeste 0 -- -- 68
2019-11-20 10:00:00 7.1 0 Calma 5 Sudeste 0 -- -- 70
2019-11-20 09:00:00 0.5 2 Sudeste 5 Sudeste 0 -- -- 98
2019-11-20 08:00:00 -1.1 0 Calma 2 Sudeste 0 -- -- 97
2019-11-20 07:00:00 -0.8 0 Calma 3 Sudeste 0 -- -- 96
2019-11-20 06:00:00 -0.3 0 Calma 3 Sudeste 0 -- -- 96
2019-11-20 05:00:00 0.3 2 Sudeste 2 Sudeste 0 -- -- 95
2019-11-20 04:00:00 1.1 0 Calma 2 Sur 0 -- -- 95
2019-11-20 03:00:00 1.2 0 Calma 3 Sudeste 0 -- -- 95
2019-11-20 02:00:00 1.1 0 Calma 3 Sudeste 0 -- -- 94
2019-11-20 01:00:00 1 0 Calma 3 Sudeste 0 -- -- 93
2019-11-20 00:00:00 1.2 0 Calma 3 Sudeste 0 -- -- 93
2019-11-19 23:00:00 1.4 0 Calma 3 Sudeste 0 -- -- 92
2019-11-19 22:00:00 2.1 0 Calma 3 Sudeste 0 -- -- 90
2019-11-19 21:00:00 2.7 0 Calma 2 Sur 0 -- -- 89
2019-11-19 20:00:00 3.3 0 Calma 2 Sudeste 0 -- -- 85
2019-11-19 19:00:00 4.3 0 Calma 2 Noroeste 0 -- -- 78
2019-11-19 18:00:00 6.2 0 Calma 10 Noroeste 0 -- -- 69
2019-11-19 17:00:00 7.5 7 Noroeste 15 Noroeste 0 -- -- 62
2019-11-19 16:00:00 8.6 6 Noroeste 18 Noroeste 0 -- -- 58
2019-11-19 15:00:00 8.7 7 Noroeste 18 Noroeste 0 -- -- 60
2019-11-19 14:00:00 9.7 8 Noroeste 20 Noroeste 0 -- -- 52
2019-11-19 13:00:00 9.6 10 Oeste 18 Noroeste 0 -- -- 57
2019-11-19 12:00:00 8.2 6 Noroeste 13 Noroeste 0 -- -- 63
2019-11-19 11:00:00 6 0 Calma 4 Sudoeste 0 -- -- 72
2019-11-19 10:00:00 3.3 2 Sur 4 Sudoeste 0 -- -- 80
2019-11-19 09:00:00 -0.8 0 Calma 2 Sur 0 -- -- 99
2019-11-19 08:00:00 -2.6 0 Calma 2 Sudeste 0 -- -- 96
2019-11-19 07:00:00 -2.4 0 Calma 2 Sudeste 0 -- -- 96
2019-11-19 06:00:00 -2.2 0 Calma 3 Sudoeste 0 -- -- 95
2019-11-19 05:00:00 -1.3 0 Calma 6 Sudoeste 0 -- -- 96
2019-11-19 04:00:00 -1.3 3 Oeste 8 Sudoeste 0 -- -- 95
2019-11-19 03:00:00 -0.5 0 Calma 2 Noroeste 0 -- -- 95
2019-11-19 02:00:00 -0.4 0 Calma 8 Oeste 0 -- -- 94
2019-11-19 01:00:00 0.1 2 Este 4 Nordeste 0 -- -- 93
2019-11-19 00:00:00 1.4 0 Calma 7 Noroeste 0 -- -- 93
2019-11-18 23:00:00 1.3 2 Noroeste 5 Noroeste 0 -- -- 91
2019-11-18 22:00:00 2.1 0 Calma 6 Norte 0 -- -- 88
2019-11-18 21:00:00 3 2 Noroeste 9 Norte 0 -- -- 84
2019-11-18 20:00:00 3.8 6 Norte 12 Nordeste 0 -- -- 84
2019-11-18 19:00:00 5.2 4 Norte 16 Norte 0 -- -- 78
2019-11-18 18:00:00 6.4 7 Norte 22 Norte 0 -- -- 72
2019-11-18 17:00:00 7.1 8 Norte 21 Noroeste 0 -- -- 69
2019-11-18 16:00:00 7.8 12 Norte 32 Nordeste 0 -- -- 64
2019-11-18 15:00:00 7.5 17 Norte 33 Nordeste 0 -- -- 60
2019-11-18 14:00:00 7.8 14 Nordeste 34 Norte 0 -- -- 66
2019-11-18 13:00:00 7.6 14 Norte 33 Nordeste 0 -- -- 70
2019-11-18 12:00:00 6.8 8 Norte 26 Norte 0 -- -- 76
2019-11-18 11:00:00 6.3 8 Norte 18 Norte 0 -- -- 82
2019-11-18 10:00:00 4 4 Norte 14 Noroeste 0 -- -- 93
2019-11-18 09:00:00 1.7 3 Norte 9 Norte 0 -- -- 99
2019-11-18 08:00:00 0.9 3 Norte 12 Norte 0 -- -- 98
2019-11-18 07:00:00 1.5 5 Norte 17 Nordeste 0 -- -- 98
2019-11-18 06:00:00 1.6 0 Calma 14 Nordeste 0 -- -- 98
2019-11-18 05:00:00 2.4 5 Norte 15 Norte 0 -- -- 98
2019-11-18 04:00:00 3.2 5 Norte 12 Nordeste 0 -- -- 98
2019-11-18 03:00:00 4.2 2 Noroeste 13 Norte 0 -- -- 98
2019-11-18 02:00:00 4.4 2 Oeste 9 Nordeste 0.2 -- -- 97
2019-11-18 01:00:00 4.8 7 Nordeste 22 Nordeste 0.6 -- -- 98
2019-11-18 00:00:00 5 8 Nordeste 22 Norte 3.8 -- -- 98
2019-11-17 23:00:00 5.8 9 Oeste 28 Oeste 7.2 -- -- 99
2019-11-17 22:00:00 5.2 15 Oeste 28 Oeste 1.2 -- -- 99
2019-11-17 21:00:00 4.9 13 Oeste 28 Oeste 3 -- -- 98
2019-11-17 20:00:00 4.6 13 Oeste 29 Sudoeste 0.6 -- -- 98
2019-11-17 19:00:00 4.1 12 Oeste 29 Oeste 0 -- -- 98
2019-11-17 18:00:00 4 13 Oeste 29 Oeste 0.2 -- -- 97
2019-11-17 17:00:00 3.9 14 Oeste 32 Oeste 0 -- -- 97
2019-11-17 16:00:00 3.8 13 Oeste 36 Oeste 0 -- -- 96
2019-11-17 15:00:00 3.9 22 Oeste 40 Oeste 0 -- -- 95
2019-11-17 14:00:00 3.8 17 Oeste 39 Sudoeste 0 -- -- 94
2019-11-17 13:00:00 4.1 17 Oeste 34 Oeste 0 -- -- 92
2019-11-17 12:00:00 3.8 15 Oeste 31 Oeste 0 -- -- 90
2019-11-17 11:00:00 4.5 16 Oeste 34 Oeste 0 -- -- 77
2019-11-17 10:00:00 4.1 15 Oeste 28 Oeste 0 -- -- 78
2019-11-17 09:00:00 1.7 9 Oeste 21 Oeste 0 -- -- 85
2019-11-17 08:00:00 0.5 10 Oeste 19 Oeste 0 -- -- 87
2019-11-17 07:00:00 -0.5 5 Noroeste 12 Noroeste 0 -- -- 90
2019-11-17 06:00:00 -0.8 6 Oeste 13 Oeste 0 -- -- 93
2019-11-17 05:00:00 -1.7 0 Calma 5 Oeste 0 -- -- 92
2019-11-17 04:00:00 -1.5 0 Calma 3 Sudeste 0 -- -- 92
2019-11-17 03:00:00 -1.1 0 Calma 4 Sudeste 0 -- -- 90
2019-11-17 02:00:00 0.3 0 Calma 11 Oeste 0 -- -- 85
2019-11-17 01:00:00 0.8 5 Oeste 13 Noroeste 0 -- -- 83
2019-11-17 00:00:00 1.1 5 Oeste 9 Oeste 0 -- -- 83
2019-11-16 23:00:00 1.4 4 Oeste 15 Oeste 0 -- -- 82
2019-11-16 22:00:00 2.3 8 Oeste 17 Oeste 0 -- -- 78
2019-11-16 21:00:00 2.8 7 Noroeste 15 Oeste 0 -- -- 75
2019-11-16 20:00:00 3.6 5 Oeste 9 Oeste 0 -- -- 73
2019-11-16 19:00:00 3.8 4 Oeste 8 Oeste 0 -- -- 73
2019-11-16 18:00:00 5 5 Noroeste 22 Noroeste 0 -- -- 68
2019-11-16 17:00:00 6.5 9 Noroeste 22 Noroeste 0 -- -- 60
2019-11-16 16:00:00 7.5 8 Norte 23 Norte 0 -- -- 57
2019-11-16 15:00:00 8.1 9 Norte 23 Noroeste 0 -- -- 54
2019-11-16 14:00:00 7.9 8 Norte 27 Norte 0 -- -- 56
2019-11-16 13:00:00 7.1 11 Norte 24 Norte 0 -- -- 59
2019-11-16 12:00:00 6.8 8 Norte 21 Norte 0 -- -- 60
2019-11-16 11:00:00 6.5 5 Norte 16 Norte 0 -- -- 64
2019-11-16 10:00:00 4.6 5 Norte 14 Noroeste 0 -- -- 74
2019-11-16 09:00:00 1.2 3 Norte 9 Norte 0 -- -- 90
2019-11-16 08:00:00 -0.7 0 Calma 7 Noroeste 0 -- -- 91
2019-11-16 07:00:00 -0.4 2 Noroeste 7 Noroeste 0 -- -- 91
2019-11-16 06:00:00 0.1 3 Norte 13 Noroeste 0 -- -- 91
2019-11-16 05:00:00 -0.6 0 Calma 6 Norte 0 -- -- 95
2019-11-16 04:00:00 0.2 0 Calma 4 Noroeste 0 -- -- 94
2019-11-16 03:00:00 1.1 2 Noroeste 5 Oeste 0 -- -- 93
2019-11-16 02:00:00 2.2 0 Calma 6 Noroeste 0 -- -- 92
2019-11-16 01:00:00 2.3 0 Calma 6 Oeste 0 -- -- 91
2019-11-16 00:00:00 2.4 3 Oeste 18 Oeste 0 -- -- 90
2019-11-15 23:00:00 2.7 7 Oeste 17 Oeste 0 -- -- 89
2019-11-15 22:00:00 2.4 3 Oeste 13 Oeste 0 -- -- 90
2019-11-15 21:00:00 2.6 6 Oeste 16 Oeste 0 -- -- 87
2019-11-15 20:00:00 2.9 9 Oeste 20 Oeste 0 -- -- 85
2019-11-15 19:00:00 3.5 14 Oeste 22 Oeste 0 -- -- 84
2019-11-15 18:00:00 3.7 11 Oeste 24 Oeste 0 -- -- 83
2019-11-15 17:00:00 4.1 12 Oeste 24 Oeste 0 -- -- 82
2019-11-15 16:00:00 5.1 10 Oeste 23 Noroeste 0 -- -- 75
2019-11-15 15:00:00 5 12 Noroeste 22 Noroeste 0 -- -- 74
2019-11-15 14:00:00 5.5 8 Noroeste 20 Noroeste 0 -- -- 69
2019-11-15 13:00:00 5.2 8 Noroeste 22 Noroeste 0 -- -- 72
2019-11-15 12:00:00 4.9 11 Oeste 22 Noroeste 0 -- -- 76
2019-11-15 11:00:00 3.6 11 Noroeste 23 Noroeste 0 -- -- 82
2019-11-15 10:00:00 2.6 10 Noroeste 31 Noroeste 0 -- -- 85
2019-11-15 09:00:00 2.6 11 Noroeste 25 Noroeste 0 -- -- 87
2019-11-15 08:00:00 1.6 9 Oeste 27 Noroeste 0 -- -- 90
2019-11-15 07:00:00 2.2 14 Noroeste 28 Oeste 0 -- -- 90
2019-11-15 06:00:00 2.7 14 Noroeste 28 Oeste 0 -- -- 89
2019-11-15 05:00:00 3 14 Noroeste 31 Noroeste 0 -- -- 88
2019-11-15 04:00:00 3.3 15 Noroeste 35 Noroeste 0 -- -- 88
2019-11-15 03:00:00 3.6 16 Noroeste 41 Noroeste 0 -- -- 87
2019-11-15 02:00:00 4.1 18 Noroeste 39 Noroeste 0 -- -- 86
2019-11-15 01:00:00 4.4 18 Noroeste 47 Noroeste 0 -- -- 86
2019-11-15 00:00:00 4.7 19 Oeste 39 Oeste 0 -- -- 83
2019-11-14 23:00:00 4.9 19 Oeste 41 Noroeste 0 -- -- 83
2019-11-14 22:00:00 5.1 21 Oeste 42 Oeste 0 -- -- 81
2019-11-14 21:00:00 5 22 Oeste 42 Oeste 0 -- -- 79
2019-11-14 20:00:00 5.1 20 Oeste 46 Oeste 0 -- -- 75
2019-11-14 19:00:00 5.4 22 Oeste 44 Oeste 0 -- -- 74
2019-11-14 18:00:00 5.5 18 Noroeste 52 Noroeste 0 -- -- 75
2019-11-14 17:00:00 6.7 20 Noroeste 50 Noroeste 0 -- -- 71
2019-11-14 16:00:00 7.4 23 Noroeste 50 Noroeste 0 -- -- 68
2019-11-14 15:00:00 6.6 22 Noroeste 42 Noroeste 1.8 -- -- 91
2019-11-14 14:00:00 1.3 5 Oeste 13 Sudoeste 1.4 -- -- 98
2019-11-14 13:00:00 0.9 5 Sudoeste 9 Sudoeste 1.2 -- -- 97
2019-11-14 12:00:00 0.7 5 Norte 24 Nordeste 0.6 -- -- 97
2019-11-14 11:00:00 3.8 20 Noroeste 49 Oeste 2.8 -- -- 89
2019-11-14 10:00:00 5.7 23 Oeste 43 Oeste 1.4 -- -- 96
2019-11-14 09:00:00 6.1 21 Oeste 39 Oeste 0 -- -- 91
2019-11-14 08:00:00 6.1 20 Oeste 48 Oeste 0 -- -- 86
2019-11-14 07:00:00 6.3 24 Oeste 42 Oeste 0 -- -- 85
2019-11-14 06:00:00 7.3 25 Oeste 47 Oeste 0 -- -- 89
2019-11-14 05:00:00 7.7 24 Oeste 43 Oeste 0 -- -- 91
2019-11-14 04:00:00 8.1 21 Oeste 49 Oeste 0 -- -- 91
2019-11-14 03:00:00 8.7 21 Oeste 38 Oeste 0 -- -- 92
2019-11-14 02:00:00 9.2 17 Oeste 38 Oeste 0 -- -- 92
2019-11-14 01:00:00 10 18 Oeste 33 Oeste 0 -- -- 89
2019-11-14 00:00:00 10 14 Oeste 28 Oeste 0 -- -- 90
2019-11-13 23:00:00 9.9 14 Oeste 24 Oeste 0 -- -- 90
2019-11-13 22:00:00 9.2 11 Oeste 21 Oeste 0 -- -- 91
2019-11-13 21:00:00 8.8 9 Oeste 15 Oeste 0 -- -- 88
2019-11-13 20:00:00 10.4 9 Noroeste 21 Noroeste 0 -- -- 83
2019-11-13 19:00:00 11.6 9 Noroeste 22 Oeste 0 -- -- 79
2019-11-13 18:00:00 12.9 8 Noroeste 21 Noroeste 0 -- -- 73
2019-11-13 17:00:00 13 8 Noroeste 18 Norte 0 -- -- 76
2019-11-13 16:00:00 13 8 Noroeste 22 Noroeste 0 -- -- 77
2019-11-13 15:00:00 12.7 7 Noroeste 32 Noroeste 0 -- -- 80
2019-11-13 14:00:00 12.9 9 Noroeste 34 Noroeste 0 -- -- 81
2019-11-13 13:00:00 11.9 10 Noroeste 37 Noroeste 0 -- -- 89
2019-11-13 12:00:00 12 15 Noroeste 41 Noroeste 0 -- -- 89
2019-11-13 11:00:00 10.3 18 Noroeste 42 Noroeste 0 -- -- 96
2019-11-13 10:00:00 9.5 17 Noroeste 39 Oeste 0.6 -- -- 97
2019-11-13 09:00:00 9.1 17 Noroeste 40 Noroeste 0.2 -- -- 97
2019-11-13 08:00:00 8.9 23 Noroeste 42 Noroeste 0 -- -- 97
2019-11-13 07:00:00 8.5 20 Oeste 50 Noroeste 0.2 -- -- 97
2019-11-13 06:00:00 8.3 23 Noroeste 39 Noroeste 0.2 -- -- 97
2019-11-13 05:00:00 7.7 17 Oeste 31 Oeste 0.4 -- -- 97
2019-11-13 04:00:00 6.1 13 Oeste 29 Oeste 1.4 -- -- 96
2019-11-13 03:00:00 5.7 15 Oeste 30 Oeste 0.8 -- -- 95
2019-11-13 02:00:00 6 12 Oeste 27 Oeste 1.8 -- -- 94
2019-11-13 01:00:00 6.5 14 Oeste 28 Oeste 0.4 -- -- 87
2019-11-13 00:00:00 7.4 13 Oeste 26 Oeste 0 -- -- 75
2019-11-12 23:00:00 6.6 12 Oeste 23 Oeste 0 -- -- 82
2019-11-12 22:00:00 6.4 10 Oeste 24 Noroeste 0 -- -- 83
2019-11-12 21:00:00 6.8 13 Noroeste 24 Noroeste 0 -- -- 80
2019-11-12 20:00:00 6.5 6 Noroeste 12 Noroeste 0 -- -- 77
2019-11-12 19:00:00 6.7 3 Oeste 10 Oeste 0 -- -- 71
2019-11-12 18:00:00 8.2 3 Noroeste 14 Norte 0 -- -- 64
2019-11-12 17:00:00 9.6 6 Norte 23 Norte 0 -- -- 57
2019-11-12 16:00:00 10.5 9 Noroeste 27 Norte 0 -- -- 54
2019-11-12 15:00:00 11.2 9 Noroeste 25 Noroeste 0 -- -- 58
2019-11-12 14:00:00 10.7 8 Norte 26 Norte 0 -- -- 61
2019-11-12 13:00:00 10.4 9 Norte 22 Norte 0 -- -- 54
2019-11-12 12:00:00 9.8 11 Norte 24 Norte 0 -- -- 55
2019-11-12 11:00:00 8.6 12 Norte 22 Norte 0 -- -- 63
2019-11-12 10:00:00 6.6 7 Norte 17 Norte 0 -- -- 88
2019-11-12 09:00:00 3.5 0 Calma 3 Sur 0 -- -- 98
2019-11-12 08:00:00 1.5 0 Calma 5 Oeste 0 -- -- 99
2019-11-12 07:00:00 2.2 0 Calma 6 Norte 0 -- -- 99
2019-11-12 06:00:00 2.8 2 Noroeste 6 Oeste 0 -- -- 99
2019-11-12 05:00:00 2.7 2 Norte 9 Norte 0 -- -- 99
2019-11-12 04:00:00 3 0 Calma 7 Norte 0 -- -- 98
2019-11-12 03:00:00 3.6 0 Calma 6 Noroeste 0 -- -- 98
2019-11-12 02:00:00 3.6 0 Calma 8 Norte 0 -- -- 98
2019-11-12 01:00:00 5 3 Norte 9 Norte 0 -- -- 97
2019-11-12 00:00:00 4.9 0 Calma 6 Nordeste 0 -- -- 96
2019-11-11 23:00:00 6.2 0 Calma 12 Nordeste 0 -- -- 94
2019-11-11 22:00:00 7.4 6 Norte 15 Nordeste 0 -- -- 93
2019-11-11 21:00:00 7.6 3 Norte 11 Norte 0 -- -- 93
2019-11-11 20:00:00 7.8 4 Norte 17 Noroeste 0 -- -- 93
2019-11-11 19:00:00 7.7 7 Noroeste 16 Noroeste 0 -- -- 92
2019-11-11 18:00:00 7.8 7 Noroeste 23 Noroeste 0 -- -- 90
2019-11-11 17:00:00 8.4 9 Noroeste 25 Oeste 0 -- -- 86
2019-11-11 16:00:00 8.5 11 Noroeste 24 Noroeste 0 -- -- 82
2019-11-11 15:00:00 8.3 12 Noroeste 26 Noroeste 0 -- -- 81
2019-11-11 14:00:00 8.3 9 Noroeste 22 Noroeste 0 -- -- 78
2019-11-11 13:00:00 7.4 11 Noroeste 26 Noroeste 0 -- -- 80
2019-11-11 12:00:00 6.9 9 Noroeste 22 Noroeste 0 -- -- 80
2019-11-11 11:00:00 6 9 Noroeste 19 Noroeste 0 -- -- 84
2019-11-11 10:00:00 5 6 Noroeste 16 Norte 0 -- -- 90
2019-11-11 09:00:00 3.5 4 Noroeste 10 Oeste 0 -- -- 92
2019-11-11 08:00:00 2.9 3 Noroeste 9 Noroeste 0 -- -- 93
2019-11-11 07:00:00 2.7 0 Calma 9 Noroeste 0 -- -- 94
2019-11-11 06:00:00 2.3 3 Noroeste 10 Norte 0 -- -- 95
2019-11-11 05:00:00 1.8 2 Norte 11 Noroeste 0 -- -- 96
2019-11-11 04:00:00 1 2 Noroeste 8 Noroeste 0 -- -- 96
2019-11-11 03:00:00 1.2 2 Noroeste 8 Norte 0 -- -- 95
2019-11-11 02:00:00 2 4 Norte 15 Norte 0 -- -- 94
2019-11-11 01:00:00 1.7 5 Noroeste 9 Noroeste 0 -- -- 93
2019-11-11 00:00:00 2.4 2 Noroeste 15 Norte 0 -- -- 90